sensor_id;sensor_type;location;lat;lon;timestamp;pressure;altitude;pressure_sealevel;temperature;humidity
52291;BME280;39663;45.432;28.050;2023-03-04T01:09:08;101333.00;;;5.24;46.61
52291;BME280;39663;45.432;28.050;2023-03-04T01:09:40;101338.26;;;5.72;46.15
52291;BME280;39663;45.432;28.050;2023-03-04T01:10:13;101331.80;;;5.72;45.98
52291;BME280;39663;45.432;28.050;2023-03-04T01:10:45;101329.42;;;5.91;45.73
52291;BME280;39663;45.432;28.050;2023-03-04T01:11:17;101334.70;;;6.01;45.77
52291;BME280;39663;45.432;28.050;2023-03-04T01:11:48;101332.30;;;6.08;44.88
52291;BME280;39663;45.432;28.050;2023-03-04T01:12:19;101335.89;;;6.43;45.21
52291;BME280;39663;45.432;28.050;2023-03-04T01:12:51;101328.78;;;6.66;44.79
52291;BME280;39663;45.432;28.050;2023-03-04T01:13:22;101330.10;;;6.75;44.56
52291;BME280;39663;45.432;28.050;2023-03-04T01:13:54;101329.50;;;6.67;44.54
52291;BME280;39663;45.432;28.050;2023-03-04T01:14:25;101332.07;;;6.51;44.32
52291;BME280;39663;45.432;28.050;2023-03-04T01:14:57;101331.35;;;6.75;44.30
52291;BME280;39663;45.432;28.050;2023-03-04T01:15:28;101330.49;;;6.68;44.07
52291;BME280;39663;45.432;28.050;2023-03-04T01:16:00;101328.76;;;6.69;43.91
52291;BME280;39663;45.432;28.050;2023-03-04T01:16:31;101327.23;;;6.76;44.02
52291;BME280;39663;45.432;28.050;2023-03-04T01:17:03;101328.72;;;5.87;45.20
52291;BME280;39663;45.432;28.050;2023-03-04T01:17:35;101335.70;;;5.47;45.71
52291;BME280;39663;45.432;28.050;2023-03-04T01:18:06;101333.56;;;4.50;46.73
52291;BME280;39663;45.432;28.050;2023-03-04T01:18:38;101333.18;;;5.10;46.74
52291;BME280;39663;45.432;28.050;2023-03-04T01:19:10;101331.63;;;5.77;45.84
52291;BME280;39663;45.432;28.050;2023-03-04T01:19:42;101331.04;;;6.13;45.62
52291;BME280;39663;45.432;28.050;2023-03-04T01:20:14;101332.56;;;5.80;45.23
52291;BME280;39663;45.432;28.050;2023-03-04T01:20:45;101329.73;;;5.99;46.05
52291;BME280;39663;45.432;28.050;2023-03-04T01:21:17;101332.36;;;5.60;45.53
52291;BME280;39663;45.432;28.050;2023-03-04T01:21:48;101332.54;;;5.85;45.66
52291;BME280;39663;45.432;28.050;2023-03-04T01:22:20;101325.49;;;5.69;45.44
52291;BME280;39663;45.432;28.050;2023-03-04T01:22:51;101329.38;;;6.10;45.53
52291;BME280;39663;45.432;28.050;2023-03-04T01:23:23;101330.24;;;6.33;44.71
52291;BME280;39663;45.432;28.050;2023-03-04T01:23:54;101329.80;;;5.80;45.28
52291;BME280;39663;45.432;28.050;2023-03-04T01:24:26;101333.84;;;6.09;45.41
52291;BME280;39663;45.432;28.050;2023-03-04T01:24:57;101328.94;;;5.65;45.22
52291;BME280;39663;45.432;28.050;2023-03-04T01:25:29;101332.59;;;4.52;46.97
52291;BME280;39663;45.432;28.050;2023-03-04T01:26:00;101331.90;;;5.36;46.97
52291;BME280;39663;45.432;28.050;2023-03-04T01:26:32;101330.65;;;5.21;46.63
52291;BME280;39663;45.432;28.050;2023-03-04T01:27:03;101331.23;;;5.11;46.61
52291;BME280;39663;45.432;28.050;2023-03-04T01:27:35;101325.91;;;5.69;45.90
52291;BME280;39663;45.432;28.050;2023-03-04T01:28:06;101330.15;;;5.94;45.25
52291;BME280;39663;45.432;28.050;2023-03-04T01:28:37;101326.92;;;6.07;44.77
52291;BME280;39663;45.432;28.050;2023-03-04T01:29:09;101328.09;;;6.21;45.29
52291;BME280;39663;45.432;28.050;2023-03-04T01:29:41;101332.08;;;5.83;45.03
52291;BME280;39663;45.432;28.050;2023-03-04T01:30:12;101328.94;;;5.86;45.76
52291;BME280;39663;45.432;28.050;2023-03-04T01:30:44;101333.78;;;6.06;45.17
52291;BME280;39663;45.432;28.050;2023-03-04T01:31:15;101327.73;;;6.20;44.56
52291;BME280;39663;45.432;28.050;2023-03-04T01:31:46;101326.10;;;5.73;44.84
52291;BME280;39663;45.432;28.050;2023-03-04T01:32:18;101330.00;;;5.81;45.22
52291;BME280;39663;45.432;28.050;2023-03-04T01:32:49;101328.94;;;5.91;44.68
52291;BME280;39663;45.432;28.050;2023-03-04T01:33:21;101334.02;;;5.33;46.15
52291;BME280;39663;45.432;28.050;2023-03-04T01:33:53;101330.53;;;5.97;45.05
52291;BME280;39663;45.432;28.050;2023-03-04T01:34:24;101332.66;;;5.77;45.03
52291;BME280;39663;45.432;28.050;2023-03-04T01:34:56;101332.02;;;5.75;45.46
52291;BME280;39663;45.432;28.050;2023-03-04T01:35:27;101337.24;;;5.38;45.75
52291;BME280;39663;45.432;28.050;2023-03-04T01:35:58;101332.38;;;6.15;45.08
52291;BME280;39663;45.432;28.050;2023-03-04T01:36:30;101331.04;;;5.83;45.29
52291;BME280;39663;45.432;28.050;2023-03-04T01:37:01;101330.69;;;6.20;44.34
52291;BME280;39663;45.432;28.050;2023-03-04T01:37:33;101330.37;;;5.62;44.82
52291;BME280;39663;45.432;28.050;2023-03-04T01:38:04;101330.79;;;5.82;45.25
52291;BME280;39663;45.432;28.050;2023-03-04T01:38:36;101331.58;;;6.19;44.56
52291;BME280;39663;45.432;28.050;2023-03-04T01:39:07;101330.55;;;5.97;44.81
52291;BME280;39663;45.432;28.050;2023-03-04T01:39:38;101334.56;;;5.91;44.68
52291;BME280;39663;45.432;28.050;2023-03-04T01:40:12;101335.50;;;5.41;45.34
52291;BME280;39663;45.432;28.050;2023-03-04T01:40:44;101334.56;;;6.05;44.94
52291;BME280;39663;45.432;28.050;2023-03-04T01:41:17;101333.33;;;5.06;45.73
52291;BME280;39663;45.432;28.050;2023-03-04T01:41:49;101336.08;;;5.30;45.74
52291;BME280;39663;45.432;28.050;2023-03-04T01:42:22;101333.54;;;4.67;45.80
52291;BME280;39663;45.432;28.050;2023-03-04T01:42:54;101335.79;;;4.91;46.51
52291;BME280;39663;45.432;28.050;2023-03-04T01:43:28;101341.61;;;4.21;47.24
52291;BME280;39663;45.432;28.050;2023-03-04T01:44:01;101337.91;;;4.99;46.81
52291;BME280;39663;45.432;28.050;2023-03-04T01:44:33;101336.59;;;5.26;45.86
52291;BME280;39663;45.432;28.050;2023-03-04T01:45:06;101336.89;;;5.59;45.64
52291;BME280;39663;45.432;28.050;2023-03-04T01:45:37;101333.90;;;5.72;45.09
52291;BME280;39663;45.432;28.050;2023-03-04T01:46:11;101337.24;;;5.05;45.72
52291;BME280;39663;45.432;28.050;2023-03-04T01:46:47;101337.19;;;5.59;45.69
52291;BME280;39663;45.432;28.050;2023-03-04T01:47:21;101337.72;;;5.90;44.95
52291;BME280;39663;45.432;28.050;2023-03-04T01:47:54;101337.80;;;5.28;45.69
52291;BME280;39663;45.432;28.050;2023-03-04T01:48:31;101340.45;;;5.02;45.80
52291;BME280;39663;45.432;28.050;2023-03-04T01:49:04;101341.88;;;5.13;46.24
52291;BME280;39663;45.432;28.050;2023-03-04T01:49:36;101337.91;;;4.91;45.94
52291;BME280;39663;45.432;28.050;2023-03-04T01:50:12;101345.78;;;4.20;47.06
52291;BME280;39663;45.432;28.050;2023-03-04T01:50:47;101340.25;;;4.98;46.40
52291;BME280;39663;45.432;28.050;2023-03-04T01:51:19;101339.80;;;5.34;46.07
52291;BME280;39663;45.432;28.050;2023-03-04T01:51:53;101341.31;;;5.45;45.57
52291;BME280;39663;45.432;28.050;2023-03-04T01:52:26;101340.21;;;4.71;46.64
52291;BME280;39663;45.432;28.050;2023-03-04T01:52:58;101346.00;;;4.55;47.10
52291;BME280;39663;45.432;28.050;2023-03-04T01:53:31;101340.12;;;5.04;45.67
52291;BME280;39663;45.432;28.050;2023-03-04T01:54:02;101341.54;;;5.40;45.87
52291;BME280;39663;45.432;28.050;2023-03-04T01:54:34;101340.40;;;4.72;46.03
52291;BME280;39663;45.432;28.050;2023-03-04T01:55:08;101338.97;;;5.04;45.76
52291;BME280;39663;45.432;28.050;2023-03-04T01:55:45;101343.12;;;4.83;46.81
52291;BME280;39663;45.432;28.050;2023-03-04T01:56:21;101341.28;;;5.13;46.92
52291;BME280;39663;45.432;28.050;2023-03-04T01:56:54;101337.97;;;5.25;46.30
52291;BME280;39663;45.432;28.050;2023-03-04T01:57:26;101338.68;;;5.64;45.55
52291;BME280;39663;45.432;28.050;2023-03-04T01:57:57;101334.50;;;5.37;45.67
52291;BME280;39663;45.432;28.050;2023-03-04T01:58:30;101334.34;;;5.84;45.30
52291;BME280;39663;45.432;28.050;2023-03-04T01:59:12;101334.39;;;5.51;44.55
52291;BME280;39663;45.432;28.050;2023-03-04T01:59:44;101337.92;;;5.19;45.95
52291;BME280;39663;45.432;28.050;2023-03-04T02:00:22;101338.86;;;5.04;45.06
52291;BME280;39663;45.432;28.050;2023-03-04T02:00:54;101338.79;;;4.64;45.99
52291;BME280;39663;45.432;28.050;2023-03-04T02:01:25;101343.26;;;4.41;47.30
52291;BME280;39663;45.432;28.050;2023-03-04T02:01:59;101337.98;;;4.98;46.41
52291;BME280;39663;45.432;28.050;2023-03-04T02:02:30;101338.71;;;5.29;45.60
52291;BME280;39663;45.432;28.050;2023-03-04T02:03:05;101335.11;;;5.41;45.82
52291;BME280;39663;45.432;28.050;2023-03-04T02:03:37;101336.96;;;5.11;45.28
52291;BME280;39663;45.432;28.050;2023-03-04T02:04:09;101335.50;;;5.43;45.58
52291;BME280;39663;45.432;28.050;2023-03-04T02:04:42;101338.78;;;5.21;44.96
52291;BME280;39663;45.432;28.050;2023-03-04T02:05:13;101342.28;;;3.87;46.74
52291;BME280;39663;45.432;28.050;2023-03-04T02:05:48;101343.24;;;4.26;46.54
52291;BME280;39663;45.432;28.050;2023-03-04T02:06:20;101339.70;;;5.10;46.45
52291;BME280;39663;45.432;28.050;2023-03-04T02:06:52;101338.02;;;5.31;44.86
52291;BME280;39663;45.432;28.050;2023-03-04T02:07:24;101340.67;;;5.22;45.48
52291;BME280;39663;45.432;28.050;2023-03-04T02:07:56;101338.14;;;5.56;45.41
52291;BME280;39663;45.432;28.050;2023-03-04T02:08:28;101336.96;;;5.63;44.32
52291;BME280;39663;45.432;28.050;2023-03-04T02:09:00;101338.15;;;5.98;44.34
52291;BME280;39663;45.432;28.050;2023-03-04T02:09:32;101337.48;;;5.94;44.65
52291;BME280;39663;45.432;28.050;2023-03-04T02:10:04;101336.97;;;6.16;44.32
52291;BME280;39663;45.432;28.050;2023-03-04T02:10:36;101335.33;;;6.28;44.00
52291;BME280;39663;45.432;28.050;2023-03-04T02:11:08;101334.19;;;5.77;43.73
52291;BME280;39663;45.432;28.050;2023-03-04T02:11:40;101336.91;;;6.27;43.84
52291;BME280;39663;45.432;28.050;2023-03-04T02:12:11;101336.88;;;5.71;43.51
52291;BME280;39663;45.432;28.050;2023-03-04T02:12:44;101339.86;;;6.06;44.03
52291;BME280;39663;45.432;28.050;2023-03-04T02:13:15;101337.21;;;6.23;43.65
52291;BME280;39663;45.432;28.050;2023-03-04T02:13:47;101335.12;;;6.41;43.74
52291;BME280;39663;45.432;28.050;2023-03-04T02:14:20;101336.27;;;6.79;42.78
52291;BME280;39663;45.432;28.050;2023-03-04T02:14:52;101333.54;;;6.53;42.87
52291;BME280;39663;45.432;28.050;2023-03-04T02:15:23;101333.05;;;6.77;42.69
52291;BME280;39663;45.432;28.050;2023-03-04T02:15:55;101333.27;;;6.60;42.10
52291;BME280;39663;45.432;28.050;2023-03-04T02:16:27;101333.99;;;6.03;42.64
52291;BME280;39663;45.432;28.050;2023-03-04T02:16:58;101332.83;;;6.13;42.68
52291;BME280;39663;45.432;28.050;2023-03-04T02:17:31;101331.04;;;6.42;43.20
52291;BME280;39663;45.432;28.050;2023-03-04T02:18:11;101332.05;;;5.68;42.91
52291;BME280;39663;45.432;28.050;2023-03-04T02:18:44;101329.92;;;6.34;43.58
52291;BME280;39663;45.432;28.050;2023-03-04T02:19:21;101330.34;;;6.50;42.39
52291;BME280;39663;45.432;28.050;2023-03-04T02:20:04;101331.45;;;6.59;42.29
52291;BME280;39663;45.432;28.050;2023-03-04T02:20:44;101333.55;;;6.61;42.60
52291;BME280;39663;45.432;28.050;2023-03-04T02:21:22;101332.84;;;5.77;42.58
52291;BME280;39663;45.432;28.050;2023-03-04T02:21:54;101334.06;;;6.30;42.55
52291;BME280;39663;45.432;28.050;2023-03-04T02:22:25;101334.31;;;6.57;42.87
52291;BME280;39663;45.432;28.050;2023-03-04T02:23:02;101332.91;;;6.43;42.36
52291;BME280;39663;45.432;28.050;2023-03-04T02:23:43;101335.06;;;6.19;41.74
52291;BME280;39663;45.432;28.050;2023-03-04T02:24:21;101334.74;;;6.46;42.11
52291;BME280;39663;45.432;28.050;2023-03-04T02:24:59;101335.74;;;6.68;42.04
52291;BME280;39663;45.432;28.050;2023-03-04T02:25:40;101337.53;;;6.75;41.75
52291;BME280;39663;45.432;28.050;2023-03-04T02:26:14;101337.02;;;6.81;41.86
52291;BME280;39663;45.432;28.050;2023-03-04T02:26:46;101337.42;;;6.49;42.13
52291;BME280;39663;45.432;28.050;2023-03-04T02:27:18;101335.58;;;6.61;41.69
52291;BME280;39663;45.432;28.050;2023-03-04T02:27:49;101333.82;;;6.76;41.61
52291;BME280;39663;45.432;28.050;2023-03-04T02:28:21;101335.03;;;6.64;41.12
52291;BME280;39663;45.432;28.050;2023-03-04T02:28:54;101334.98;;;6.73;41.64
52291;BME280;39663;45.432;28.050;2023-03-04T02:29:27;101330.68;;;6.90;40.87
52291;BME280;39663;45.432;28.050;2023-03-04T02:29:59;101331.72;;;6.74;41.85
52291;BME280;39663;45.432;28.050;2023-03-04T02:30:30;101331.48;;;6.84;41.25
52291;BME280;39663;45.432;28.050;2023-03-04T02:31:02;101329.50;;;6.93;41.29
52291;BME280;39663;45.432;28.050;2023-03-04T02:31:35;101329.42;;;6.86;41.11
52291;BME280;39663;45.432;28.050;2023-03-04T02:32:10;101328.73;;;6.46;41.40
52291;BME280;39663;45.432;28.050;2023-03-04T02:32:43;101331.33;;;5.96;41.73
52291;BME280;39663;45.432;28.050;2023-03-04T02:33:16;101329.06;;;6.27;42.67
52291;BME280;39663;45.432;28.050;2023-03-04T02:33:49;101332.14;;;6.54;42.11
52291;BME280;39663;45.432;28.050;2023-03-04T02:34:22;101331.27;;;6.67;41.81
52291;BME280;39663;45.432;28.050;2023-03-04T02:34:55;101331.34;;;6.80;41.70
52291;BME280;39663;45.432;28.050;2023-03-04T02:35:27;101328.97;;;7.08;40.83
52291;BME280;39663;45.432;28.050;2023-03-04T02:35:58;101333.05;;;6.54;41.90
52291;BME280;39663;45.432;28.050;2023-03-04T02:36:30;101329.59;;;6.57;41.93
52291;BME280;39663;45.432;28.050;2023-03-04T02:37:03;101328.63;;;6.67;41.64
52291;BME280;39663;45.432;28.050;2023-03-04T02:37:34;101328.58;;;6.76;41.33
52291;BME280;39663;45.432;28.050;2023-03-04T02:38:06;101329.08;;;6.62;42.31
52291;BME280;39663;45.432;28.050;2023-03-04T02:38:37;101328.07;;;6.44;41.58
52291;BME280;39663;45.432;28.050;2023-03-04T02:39:19;101331.07;;;6.31;42.64
52291;BME280;39663;45.432;28.050;2023-03-04T02:39:51;101332.19;;;5.76;42.08
52291;BME280;39663;45.432;28.050;2023-03-04T02:40:27;101331.77;;;6.15;42.30
52291;BME280;39663;45.432;28.050;2023-03-04T02:41:00;101332.53;;;5.22;42.99
52291;BME280;39663;45.432;28.050;2023-03-04T02:41:33;101329.43;;;5.90;42.46
52291;BME280;39663;45.432;28.050;2023-03-04T02:42:04;101331.98;;;6.03;43.61
52291;BME280;39663;45.432;28.050;2023-03-04T02:42:36;101330.08;;;6.31;42.18
52291;BME280;39663;45.432;28.050;2023-03-04T02:43:10;101332.35;;;6.31;43.45
52291;BME280;39663;45.432;28.050;2023-03-04T02:43:43;101329.37;;;6.51;41.71
52291;BME280;39663;45.432;28.050;2023-03-04T02:44:17;101332.40;;;5.47;42.83
52291;BME280;39663;45.432;28.050;2023-03-04T02:44:48;101331.03;;;5.96;43.78
52291;BME280;39663;45.432;28.050;2023-03-04T02:45:33;101332.18;;;6.26;43.39
52291;BME280;39663;45.432;28.050;2023-03-04T02:46:05;101331.92;;;5.99;42.88
52291;BME280;39663;45.432;28.050;2023-03-04T02:46:37;101335.14;;;5.93;42.11
52291;BME280;39663;45.432;28.050;2023-03-04T02:47:11;101335.62;;;6.21;42.34
52291;BME280;39663;45.432;28.050;2023-03-04T02:47:42;101336.36;;;6.19;42.11
52291;BME280;39663;45.432;28.050;2023-03-04T02:48:15;101341.07;;;6.37;43.37
52291;BME280;39663;45.432;28.050;2023-03-04T02:48:47;101340.63;;;6.40;41.93
52291;BME280;39663;45.432;28.050;2023-03-04T02:49:19;101339.95;;;6.40;41.63
52291;BME280;39663;45.432;28.050;2023-03-04T02:49:51;101340.08;;;6.28;41.67
52291;BME280;39663;45.432;28.050;2023-03-04T02:50:22;101344.62;;;5.37;42.67
52291;BME280;39663;45.432;28.050;2023-03-04T02:50:54;101343.66;;;5.27;43.36
52291;BME280;39663;45.432;28.050;2023-03-04T02:51:26;101342.24;;;5.17;43.30
52291;BME280;39663;45.432;28.050;2023-03-04T02:52:01;101343.05;;;5.53;42.63
52291;BME280;39663;45.432;28.050;2023-03-04T02:52:33;101342.60;;;5.18;43.15
52291;BME280;39663;45.432;28.050;2023-03-04T02:53:04;101344.84;;;5.48;43.51
52291;BME280;39663;45.432;28.050;2023-03-04T02:53:36;101342.87;;;5.92;42.77
52291;BME280;39663;45.432;28.050;2023-03-04T02:54:14;101346.67;;;5.41;43.16
52291;BME280;39663;45.432;28.050;2023-03-04T02:54:46;101344.26;;;5.81;43.72
52291;BME280;39663;45.432;28.050;2023-03-04T02:55:17;101348.60;;;4.98;43.53
52291;BME280;39663;45.432;28.050;2023-03-04T02:55:48;101345.51;;;5.66;43.53
52291;BME280;39663;45.432;28.050;2023-03-04T02:56:20;101344.07;;;5.85;43.72
52291;BME280;39663;45.432;28.050;2023-03-04T02:56:53;101346.14;;;5.45;43.09
52291;BME280;39663;45.432;28.050;2023-03-04T02:57:25;101343.00;;;4.98;43.95
52291;BME280;39663;45.432;28.050;2023-03-04T02:57:56;101343.96;;;5.26;43.55
52291;BME280;39663;45.432;28.050;2023-03-04T02:58:27;101343.51;;;5.44;43.49
52291;BME280;39663;45.432;28.050;2023-03-04T02:58:59;101342.88;;;5.55;42.75
52291;BME280;39663;45.432;28.050;2023-03-04T02:59:30;101338.61;;;5.56;43.48
52291;BME280;39663;45.432;28.050;2023-03-04T03:00:02;101341.39;;;5.43;43.22
52291;BME280;39663;45.432;28.050;2023-03-04T03:00:34;101344.62;;;5.23;43.61
52291;BME280;39663;45.432;28.050;2023-03-04T03:01:05;101342.43;;;5.54;43.88
52291;BME280;39663;45.432;28.050;2023-03-04T03:01:36;101342.48;;;5.00;43.87
52291;BME280;39663;45.432;28.050;2023-03-04T03:02:08;101341.18;;;5.50;43.90
52291;BME280;39663;45.432;28.050;2023-03-04T03:02:40;101343.18;;;5.56;44.28
52291;BME280;39663;45.432;28.050;2023-03-04T03:03:11;101339.75;;;5.92;43.03
52291;BME280;39663;45.432;28.050;2023-03-04T03:03:43;101337.35;;;5.87;42.76
52291;BME280;39663;45.432;28.050;2023-03-04T03:04:14;101337.51;;;5.79;42.51
52291;BME280;39663;45.432;28.050;2023-03-04T03:04:46;101338.96;;;5.57;43.14
52291;BME280;39663;45.432;28.050;2023-03-04T03:05:17;101341.12;;;5.19;43.42
52291;BME280;39663;45.432;28.050;2023-03-04T03:05:49;101341.22;;;5.16;43.27
52291;BME280;39663;45.432;28.050;2023-03-04T03:06:20;101339.78;;;5.31;43.95
52291;BME280;39663;45.432;28.050;2023-03-04T03:06:52;101339.18;;;5.14;43.35
52291;BME280;39663;45.432;28.050;2023-03-04T03:07:23;101339.66;;;5.52;44.14
52291;BME280;39663;45.432;28.050;2023-03-04T03:07:55;101339.58;;;5.46;43.79
52291;BME280;39663;45.432;28.050;2023-03-04T03:08:26;101338.12;;;5.53;44.07
52291;BME280;39663;45.432;28.050;2023-03-04T03:08:58;101334.82;;;5.76;42.72
52291;BME280;39663;45.432;28.050;2023-03-04T03:09:29;101337.29;;;5.11;43.38
52291;BME280;39663;45.432;28.050;2023-03-04T03:10:00;101336.83;;;5.38;43.10
52291;BME280;39663;45.432;28.050;2023-03-04T03:10:32;101338.06;;;5.48;43.16
52291;BME280;39663;45.432;28.050;2023-03-04T03:11:04;101339.07;;;5.37;43.55
52291;BME280;39663;45.432;28.050;2023-03-04T03:11:35;101336.54;;;5.55;42.96
52291;BME280;39663;45.432;28.050;2023-03-04T03:12:07;101336.50;;;5.80;43.33
52291;BME280;39663;45.432;28.050;2023-03-04T03:12:38;101337.77;;;5.75;43.77
52291;BME280;39663;45.432;28.050;2023-03-04T03:13:10;101335.92;;;5.93;42.41
52291;BME280;39663;45.432;28.050;2023-03-04T03:13:41;101336.04;;;5.93;43.26
52291;BME280;39663;45.432;28.050;2023-03-04T03:14:13;101337.71;;;6.01;43.08
52291;BME280;39663;45.432;28.050;2023-03-04T03:14:44;101334.73;;;5.89;42.36
52291;BME280;39663;45.432;28.050;2023-03-04T03:15:16;101337.40;;;6.00;43.19
52291;BME280;39663;45.432;28.050;2023-03-04T03:15:48;101338.02;;;5.98;43.23
52291;BME280;39663;45.432;28.050;2023-03-04T03:16:19;101337.51;;;6.24;42.75
52291;BME280;39663;45.432;28.050;2023-03-04T03:16:50;101335.68;;;6.15;42.48
52291;BME280;39663;45.432;28.050;2023-03-04T03:17:22;101331.75;;;6.06;42.00
52291;BME280;39663;45.432;28.050;2023-03-04T03:17:53;101332.31;;;5.99;42.41
52291;BME280;39663;45.432;28.050;2023-03-04T03:18:25;101331.65;;;5.65;42.21
52291;BME280;39663;45.432;28.050;2023-03-04T03:18:56;101332.54;;;5.96;42.11
52291;BME280;39663;45.432;28.050;2023-03-04T03:19:27;101331.02;;;6.20;42.76
52291;BME280;39663;45.432;28.050;2023-03-04T03:19:59;101333.26;;;6.31;42.16
52291;BME280;39663;45.432;28.050;2023-03-04T03:22:31;101334.58;;;6.25;41.27
52291;BME280;39663;45.432;28.050;2023-03-04T03:23:03;101334.76;;;5.97;42.22
52291;BME280;39663;45.432;28.050;2023-03-04T03:23:35;101334.70;;;5.87;41.36
52291;BME280;39663;45.432;28.050;2023-03-04T03:24:06;101335.60;;;6.20;41.78
52291;BME280;39663;45.432;28.050;2023-03-04T03:24:37;101333.81;;;6.01;41.47
52291;BME280;39663;45.432;28.050;2023-03-04T03:25:11;101335.85;;;5.95;41.63
52291;BME280;39663;45.432;28.050;2023-03-04T03:25:43;101334.48;;;5.82;41.53
52291;BME280;39663;45.432;28.050;2023-03-04T03:26:15;101336.56;;;6.15;41.00
52291;BME280;39663;45.432;28.050;2023-03-04T03:26:47;101336.71;;;6.14;42.06
52291;BME280;39663;45.432;28.050;2023-03-04T03:27:18;101336.16;;;6.24;42.14
52291;BME280;39663;45.432;28.050;2023-03-04T03:27:49;101336.44;;;6.38;42.17
52291;BME280;39663;45.432;28.050;2023-03-04T03:28:21;101335.72;;;6.11;41.42
52291;BME280;39663;45.432;28.050;2023-03-04T03:28:52;101336.32;;;6.25;41.76
52291;BME280;39663;45.432;28.050;2023-03-04T03:29:23;101335.00;;;6.43;41.90
52291;BME280;39663;45.432;28.050;2023-03-04T03:29:55;101334.95;;;6.34;41.86
52291;BME280;39663;45.432;28.050;2023-03-04T03:30:26;101334.35;;;6.13;40.73
52291;BME280;39663;45.432;28.050;2023-03-04T03:30:58;101332.20;;;5.49;41.40
52291;BME280;39663;45.432;28.050;2023-03-04T03:31:29;101331.67;;;5.24;41.59
52291;BME280;39663;45.432;28.050;2023-03-04T03:32:01;101333.96;;;5.55;42.30
52291;BME280;39663;45.432;28.050;2023-03-04T03:32:32;101334.96;;;5.13;41.72
52291;BME280;39663;45.432;28.050;2023-03-04T03:33:03;101331.66;;;5.59;43.08
52291;BME280;39663;45.432;28.050;2023-03-04T03:33:35;101334.24;;;5.24;42.14
52291;BME280;39663;45.432;28.050;2023-03-04T03:34:06;101335.30;;;4.94;43.10
52291;BME280;39663;45.432;28.050;2023-03-04T03:34:38;101335.59;;;5.37;41.98
52291;BME280;39663;45.432;28.050;2023-03-04T03:35:10;101334.35;;;5.47;42.70
52291;BME280;39663;45.432;28.050;2023-03-04T03:35:41;101331.09;;;5.73;41.92
52291;BME280;39663;45.432;28.050;2023-03-04T03:36:13;101333.02;;;5.72;42.28
52291;BME280;39663;45.432;28.050;2023-03-04T03:36:44;101330.62;;;5.96;42.89
52291;BME280;39663;45.432;28.050;2023-03-04T03:37:16;101330.64;;;6.26;41.95
52291;BME280;39663;45.432;28.050;2023-03-04T03:37:47;101330.18;;;6.45;40.89
52291;BME280;39663;45.432;28.050;2023-03-04T03:38:18;101332.18;;;6.34;41.03
52291;BME280;39663;45.432;28.050;2023-03-04T03:38:50;101330.27;;;6.44;41.28
52291;BME280;39663;45.432;28.050;2023-03-04T03:39:21;101333.07;;;6.31;42.29
52291;BME280;39663;45.432;28.050;2023-03-04T03:39:52;101333.68;;;6.55;40.47
52291;BME280;39663;45.432;28.050;2023-03-04T03:40:24;101332.41;;;6.32;41.13
52291;BME280;39663;45.432;28.050;2023-03-04T03:40:55;101332.95;;;6.24;40.39
52291;BME280;39663;45.432;28.050;2023-03-04T03:41:26;101334.30;;;5.95;40.38
52291;BME280;39663;45.432;28.050;2023-03-04T03:41:58;101334.44;;;6.33;40.74
52291;BME280;39663;45.432;28.050;2023-03-04T03:42:29;101335.49;;;5.60;41.37
52291;BME280;39663;45.432;28.050;2023-03-04T03:43:01;101337.00;;;5.51;41.45
52291;BME280;39663;45.432;28.050;2023-03-04T03:43:32;101334.00;;;5.62;40.81
52291;BME280;39663;45.432;28.050;2023-03-04T03:44:04;101336.43;;;5.82;41.71
52291;BME280;39663;45.432;28.050;2023-03-04T03:44:35;101336.77;;;5.95;41.91
52291;BME280;39663;45.432;28.050;2023-03-04T03:45:07;101336.74;;;5.90;41.11
52291;BME280;39663;45.432;28.050;2023-03-04T03:45:39;101335.73;;;6.06;41.09
52291;BME280;39663;45.432;28.050;2023-03-04T03:46:10;101335.42;;;5.95;40.78
52291;BME280;39663;45.432;28.050;2023-03-04T03:46:41;101336.10;;;5.64;41.67
52291;BME280;39663;45.432;28.050;2023-03-04T03:47:13;101337.97;;;5.50;41.61
52291;BME280;39663;45.432;28.050;2023-03-04T03:47:44;101340.08;;;5.59;41.88
52291;BME280;39663;45.432;28.050;2023-03-04T03:48:16;101337.13;;;5.80;42.71
52291;BME280;39663;45.432;28.050;2023-03-04T03:48:47;101334.39;;;6.02;42.02
52291;BME280;39663;45.432;28.050;2023-03-04T03:49:19;101334.58;;;5.60;41.13
52291;BME280;39663;45.432;28.050;2023-03-04T03:49:50;101334.35;;;5.88;41.12
52291;BME280;39663;45.432;28.050;2023-03-04T03:50:21;101335.53;;;5.96;42.01
52291;BME280;39663;45.432;28.050;2023-03-04T03:50:53;101334.41;;;6.10;41.78
52291;BME280;39663;45.432;28.050;2023-03-04T03:51:24;101335.05;;;6.02;40.77
52291;BME280;39663;45.432;28.050;2023-03-04T03:51:55;101334.50;;;6.46;40.39
52291;BME280;39663;45.432;28.050;2023-03-04T03:52:27;101335.60;;;6.20;40.84
52291;BME280;39663;45.432;28.050;2023-03-04T03:52:58;101336.22;;;6.23;40.31
52291;BME280;39663;45.432;28.050;2023-03-04T03:53:30;101336.31;;;6.07;40.43
52291;BME280;39663;45.432;28.050;2023-03-04T03:54:01;101335.55;;;6.29;40.56
52291;BME280;39663;45.432;28.050;2023-03-04T03:54:33;101336.88;;;5.95;40.78
52291;BME280;39663;45.432;28.050;2023-03-04T03:55:05;101336.43;;;6.00;41.02
52291;BME280;39663;45.432;28.050;2023-03-04T03:55:36;101333.90;;;6.28;40.77
52291;BME280;39663;45.432;28.050;2023-03-04T03:56:07;101334.48;;;6.09;40.50
52291;BME280;39663;45.432;28.050;2023-03-04T03:56:39;101334.55;;;5.90;40.83
52291;BME280;39663;45.432;28.050;2023-03-04T03:57:10;101331.91;;;6.07;40.51
52291;BME280;39663;45.432;28.050;2023-03-04T03:57:42;101332.35;;;5.97;41.29
52291;BME280;39663;45.432;28.050;2023-03-04T03:58:13;101332.54;;;5.50;41.62
52291;BME280;39663;45.432;28.050;2023-03-04T03:58:44;101331.69;;;5.82;41.59
52291;BME280;39663;45.432;28.050;2023-03-04T03:59:16;101330.39;;;5.87;41.01
52291;BME280;39663;45.432;28.050;2023-03-04T03:59:47;101330.53;;;5.54;41.21